Time;durP1;ratioP1;P1;durP2;ratioP2;P2;SDS_P1;SDS_P2;PMS_P1;PMS_P2;Temp;Humidity;BMP_temperature;BMP_pressure;BME280_temperature;BME280_humidity;BME280_pressure;Samples;Min_cycle;Max_cycle;Signal;HPM_P1;HPM_P2
2022/04/11 00:01:06;;;;;;;4.50;4.10;;;;;;;7.04;nan;94583.44;5001647;28;20749;-70
2022/04/11 00:03:32;;;;;;;4.18;3.88;;;;;;;7.00;nan;94590.25;5002232;28;20200;-70
2022/04/11 00:05:59;;;;;;;5.57;3.95;;;;;;;6.84;nan;94586.50;5001851;28;20200;-70
2022/04/11 00:08:26;;;;;;;6.78;3.78;;;;;;;6.80;nan;94595.03;5003030;28;20701;-72
2022/04/11 00:10:53;;;;;;;4.38;4.07;;;;;;;7.02;nan;94592.75;5002349;28;20208;-71
2022/04/11 00:13:20;;;;;;;4.68;4.20;;;;;;;7.05;nan;94595.19;5003065;28;20239;-71
2022/04/11 00:15:46;;;;;;;4.63;4.30;;;;;;;7.05;nan;94600.25;5001126;28;20672;-72
2022/04/11 00:18:15;;;;;;;4.50;4.13;;;;;;;7.09;nan;94605.19;5001552;28;20266;-71
2022/04/11 00:20:43;;;;;;;5.75;4.30;;;;;;;7.07;nan;94606.09;5000931;28;20208;-71
2022/04/11 00:23:10;;;;;;;7.45;3.92;;;;;;;7.22;nan;94603.13;5001522;28;20204;-70
2022/04/11 00:25:37;;;;;;;4.07;3.78;;;;;;;7.14;nan;94615.16;5001920;28;20231;-72
2022/04/11 00:28:04;;;;;;;4.20;3.90;;;;;;;7.10;nan;94616.13;5001546;28;20204;-70
2022/04/11 00:30:31;;;;;;;4.63;3.80;;;;;;;7.15;nan;94621.88;5001381;28;20217;-71
2022/04/11 00:32:58;;;;;;;3.67;3.47;;;;;;;6.95;nan;94629.13;5002255;28;20230;-70
2022/04/11 00:35:26;;;;;;;5.10;3.65;;;;;;;6.99;nan;94638.28;5000136;28;20671;-71
2022/04/11 00:37:53;;;;;;;4.78;3.15;;;;;;;7.17;nan;94635.31;5002646;28;20683;-72
2022/04/11 00:40:20;;;;;;;4.60;3.83;;;;;;;7.18;nan;94637.75;5000193;28;20208;-71
2022/04/11 00:42:49;;;;;;;3.95;3.65;;;;;;;7.15;nan;94640.38;5002325;28;20208;-73
2022/04/11 00:45:16;;;;;;;3.50;3.20;;;;;;;7.25;nan;94648.53;5001922;28;20327;-71
2022/04/11 00:47:45;;;;;;;4.82;3.88;;;;;;;7.31;nan;94643.31;5000651;28;20211;-71
2022/04/11 00:50:13;;;;;;;3.42;3.13;;;;;;;7.40;nan;94654.88;5001710;28;20777;-71
2022/04/11 00:52:43;;;;;;;3.40;3.10;;;;;;;7.38;nan;94649.88;5002297;28;20230;-71
2022/04/11 00:55:12;;;;;;;3.33;3.13;;;;;;;7.53;nan;94658.72;5001487;28;20204;-71
2022/04/11 00:57:39;;;;;;;3.65;3.35;;;;;;;7.65;nan;94663.44;5002011;28;20211;-71
2022/04/11 01:00:08;;;;;;;4.03;3.45;;;;;;;7.15;nan;94670.72;5001075;28;20239;-71
2022/04/11 01:02:35;;;;;;;3.13;2.92;;;;;;;7.25;nan;94673.81;5001933;28;20222;-71
2022/04/11 01:05:04;;;;;;;4.38;3.25;;;;;;;7.10;nan;94680.09;5000046;28;20363;-71
2022/04/11 01:07:31;;;;;;;3.25;2.95;;;;;;;7.35;nan;94682.81;5003933;28;20274;-71
2022/04/11 01:09:59;;;;;;;3.35;3.05;;;;;;;7.41;nan;94682.66;5005337;28;20202;-71
2022/04/11 01:12:27;;;;;;;3.40;3.20;;;;;;;7.29;nan;94684.66;5005915;28;20322;-71
2022/04/11 01:14:54;;;;;;;3.08;2.88;;;;;;;7.27;nan;94692.28;5005543;28;20398;-71
2022/04/11 01:17:21;;;;;;;3.40;3.20;;;;;;;7.12;nan;94692.69;5004684;28;20208;-71
2022/04/11 01:19:48;;;;;;;4.35;3.15;;;;;;;7.10;nan;94699.50;5005461;28;20204;-72
2022/04/11 01:22:16;;;;;;;3.53;2.90;;;;;;;7.06;nan;94703.78;5005273;28;20643;-71
2022/04/11 01:24:43;;;;;;;3.42;2.92;;;;;;;7.24;nan;94707.53;5005727;28;20784;-73
2022/04/11 01:27:09;;;;;;;3.30;3.00;;;;;;;7.42;nan;94712.09;5005433;28;20263;-71
2022/04/11 01:29:36;;;;;;;4.18;3.45;;;;;;;7.25;nan;94704.13;5004116;28;20200;-71
2022/04/11 01:32:04;;;;;;;3.33;3.05;;;;;;;7.34;nan;94713.19;5005403;28;20208;-72
2022/04/11 01:34:31;;;;;;;4.22;3.00;;;;;;;7.27;nan;94717.56;5005455;28;20298;-71
2022/04/11 01:36:58;;;;;;;2.97;2.78;;;;;;;7.33;nan;94717.41;5005173;28;21243;-70
2022/04/11 01:39:26;;;;;;;5.10;2.67;;;;;;;7.26;nan;94728.53;5005063;28;20208;-73
2022/04/11 01:41:53;;;;;;;4.43;2.95;;;;;;;7.39;nan;94729.88;5005119;28;20204;-70
2022/04/11 01:44:20;;;;;;;3.38;3.17;;;;;;;7.42;nan;94736.56;5005034;28;20208;-72
2022/04/11 01:46:50;;;;;;;2.85;2.53;;;;;;;7.22;nan;94743.81;5004978;28;20203;-71
2022/04/11 01:49:17;;;;;;;2.97;2.78;;;;;;;6.97;nan;94724.22;5005836;28;20218;-70
2022/04/11 01:51:44;;;;;;;3.67;2.60;;;;;;;7.37;nan;94748.50;5005262;28;20290;-71
2022/04/11 01:54:10;;;;;;;2.80;2.70;;;;;;;7.36;nan;94752.72;5005105;28;20204;-72
2022/04/11 01:56:39;;;;;;;2.95;2.75;;;;;;;7.36;nan;94755.25;5004131;28;20284;-71
2022/04/11 01:59:06;;;;;;;4.93;2.30;;;;;;;7.43;nan;94759.25;5003541;28;20200;-73
2022/04/11 02:01:32;;;;;;;3.13;2.92;;;;;;;7.56;nan;94759.78;5003965;28;20207;-71
2022/04/11 02:03:59;;;;;;;3.15;2.95;;;;;;;7.68;nan;94769.53;5004467;28;20261;-71
2022/04/11 02:06:26;;;;;;;6.97;3.40;;;;;;;7.73;nan;94774.47;5003655;28;20236;-72
2022/04/11 02:08:52;;;;;;;3.17;2.97;;;;;;;7.67;nan;94777.19;5004710;28;20208;-70
2022/04/11 02:11:19;;;;;;;3.08;2.33;;;;;;;7.56;nan;94781.69;5004224;28;20203;-70
2022/04/11 02:13:47;;;;;;;2.60;2.40;;;;;;;7.60;nan;94785.81;5004889;28;20263;-71
2022/04/11 02:16:14;;;;;;;2.40;2.30;;;;;;;7.51;nan;94787.69;5004565;28;20223;-71
2022/04/11 02:18:41;;;;;;;2.70;2.53;;;;;;;7.61;nan;94782.41;5005333;28;20694;-71
2022/04/11 02:21:08;;;;;;;3.00;2.70;;;;;;;7.61;nan;94790.81;5005244;28;20922;-70
2022/04/11 02:23:35;;;;;;;2.60;2.20;;;;;;;7.69;nan;94791.44;5004633;28;20208;-72
2022/04/11 02:26:02;;;;;;;2.13;2.03;;;;;;;7.69;nan;94791.44;5003533;28;20238;-70
2022/04/11 02:28:29;;;;;;;2.70;2.50;;;;;;;7.62;nan;94805.13;5003944;28;20211;-71
2022/04/11 02:30:57;;;;;;;2.38;2.20;;;;;;;7.64;nan;94813.50;5003729;28;20203;-71
2022/04/11 02:33:24;;;;;;;2.50;2.30;;;;;;;7.61;nan;94817.81;5004301;28;20691;-72
2022/04/11 02:35:51;;;;;;;2.10;1.95;;;;;;;7.75;nan;94816.56;5003637;28;20691;-71
2022/04/11 02:38:18;;;;;;;2.45;2.25;;;;;;;7.83;nan;94818.91;5003169;28;20777;-71
2022/04/11 02:40:46;;;;;;;2.90;2.58;;;;;;;7.75;nan;94823.31;5002183;28;20215;-70
2022/04/11 02:43:12;;;;;;;2.70;2.50;;;;;;;7.79;nan;94819.84;5002887;28;20656;-70
2022/04/11 02:45:39;;;;;;;2.78;2.50;;;;;;;7.51;nan;94835.75;5003498;28;20220;-73
2022/04/11 02:48:08;;;;;;;2.95;2.50;;;;;;;7.69;nan;94826.00;5004534;28;20207;-70
2022/04/11 02:50:35;;;;;;;2.83;2.72;;;;;;;7.47;nan;94834.16;5002582;28;20615;-72
2022/04/11 02:53:02;;;;;;;2.08;1.98;;;;;;;7.65;nan;94839.63;5002763;28;20246;-71
2022/04/11 02:55:28;;;;;;;2.35;2.15;;;;;;;7.71;nan;94849.56;5003289;28;20234;-71
2022/04/11 02:57:55;;;;;;;2.92;2.58;;;;;;;7.39;nan;94848.72;5003935;28;20258;-72
2022/04/11 03:00:22;;;;;;;2.97;2.63;;;;;;;7.36;nan;94851.31;5003474;28;21570;-70
2022/04/11 03:02:49;;;;;;;2.83;2.60;;;;;;;7.25;nan;94853.25;5002788;28;20207;-71
2022/04/11 03:05:17;;;;;;;2.03;1.85;;;;;;;7.21;nan;94859.25;5002850;28;20346;-70
2022/04/11 03:07:43;;;;;;;1.98;1.88;;;;;;;7.20;nan;94852.53;5001425;28;20882;-70
2022/04/11 03:10:10;;;;;;;2.03;1.92;;;;;;;7.20;nan;94852.53;5002577;28;20207;-71
2022/04/11 03:12:37;;;;;;;3.55;3.22;;;;;;;7.25;nan;94853.25;5003293;28;20928;-71
2022/04/11 03:15:05;;;;;;;2.58;2.38;;;;;;;7.46;nan;94855.25;5001918;28;20230;-71
2022/04/11 03:17:32;;;;;;;2.15;2.05;;;;;;;7.49;nan;94865.28;5001134;28;20208;-72
2022/04/11 03:19:58;;;;;;;2.80;2.05;;;;;;;7.53;nan;94870.28;5000607;28;20296;-71
2022/04/11 03:22:29;;;;;;;2.15;1.95;;;;;;;7.73;nan;94868.06;5001627;28;20208;-71
2022/04/11 03:24:56;;;;;;;2.13;2.03;;;;;;;7.76;nan;94878.09;5001225;28;20219;-72
2022/04/11 03:27:23;;;;;;;2.17;2.08;;;;;;;7.82;nan;94877.97;5000085;28;20214;-72
2022/04/11 03:29:49;;;;;;;3.03;2.67;;;;;;;7.93;nan;94881.03;5000715;28;20226;-73
2022/04/11 03:32:16;;;;;;;3.50;2.20;;;;;;;7.84;nan;94876.22;5000983;28;20297;-69
2022/04/11 03:34:43;;;;;;;2.40;2.30;;;;;;;7.76;nan;94885.69;5002726;28;20204;-72
2022/04/11 03:37:10;;;;;;;2.45;2.35;;;;;;;7.90;nan;94888.72;5002722;28;20203;-71
2022/04/11 03:39:38;;;;;;;2.20;2.10;;;;;;;7.96;nan;94896.13;5001881;28;20735;-71
2022/04/11 03:42:06;;;;;;;4.40;2.47;;;;;;;8.05;nan;94898.44;5003084;28;20200;-71
2022/04/11 03:44:35;;;;;;;7.57;3.80;;;;;;;7.84;nan;94901.53;5002895;28;20242;-73
2022/04/11 03:47:01;;;;;;;3.83;3.50;;;;;;;7.88;nan;94908.16;5001651;28;20231;-72
2022/04/11 03:49:28;;;;;;;40.33;19.70;;;;;;;7.96;nan;94908.78;5001348;28;20250;-72
2022/04/11 03:51:55;;;;;;;13.18;9.32;;;;;;;8.07;nan;94911.88;5002557;28;20231;-72
2022/04/11 03:54:22;;;;;;;6.88;5.53;;;;;;;7.94;nan;94913.03;5003052;28;20203;-72
2022/04/11 03:56:50;;;;;;;5.70;4.07;;;;;;;7.58;nan;94913.97;5000475;28;20204;-73
2022/04/11 03:59:17;;;;;;;2.72;2.63;;;;;;;7.47;nan;94914.22;5002185;28;20204;-73
2022/04/11 04:01:43;;;;;;;5.28;3.10;;;;;;;7.26;nan;94913.03;5001266;28;20253;-71
2022/04/11 04:04:10;;;;;;;3.00;2.78;;;;;;;7.25;nan;94906.31;5002409;28;20214;-73
2022/04/11 04:06:37;;;;;;;4.00;3.10;;;;;;;7.27;nan;94908.81;5002316;28;20274;-71
2022/04/11 04:09:04;;;;;;;4.55;3.03;;;;;;;7.21;nan;94927.47;5000776;28;20207;-73
2022/04/11 04:11:30;;;;;;;6.45;3.17;;;;;;;7.29;nan;94920.56;5002069;28;20204;-73
2022/04/11 04:13:59;;;;;;;6.25;2.75;;;;;;;7.26;nan;94918.09;5001325;28;20657;-72
2022/04/11 04:16:26;;;;;;;3.17;2.88;;;;;;;7.29;nan;94938.25;5002305;28;20285;-73
2022/04/11 04:18:53;;;;;;;3.00;2.80;;;;;;;7.30;nan;94944.13;5002388;28;20258;-72
2022/04/11 04:21:19;;;;;;;3.13;2.83;;;;;;;7.36;nan;94944.84;5000549;28;20738;-71
2022/04/11 04:23:46;;;;;;;3.30;3.10;;;;;;;7.41;nan;94953.16;5002678;28;20208;-71
2022/04/11 04:26:13;;;;;;;3.25;3.00;;;;;;;7.24;nan;94944.28;5001030;28;20235;-71
2022/04/11 04:28:39;;;;;;;4.63;3.13;;;;;;;7.16;nan;94936.88;5002065;28;20580;-70
2022/04/11 04:31:08;;;;;;;3.25;2.95;;;;;;;7.35;nan;94962.56;5001809;28;20196;-73
2022/04/11 04:33:34;;;;;;;4.00;3.42;;;;;;;7.22;nan;94959.47;5002240;28;20638;-71
2022/04/11 04:36:01;;;;;;;4.78;3.40;;;;;;;7.34;nan;94965.97;5001371;28;20260;-70
2022/04/11 04:38:28;;;;;;;6.15;3.95;;;;;;;7.14;nan;94968.94;5001416;28;20258;-73
2022/04/11 04:40:55;;;;;;;4.80;4.38;;;;;;;7.33;nan;94977.75;5001565;28;20274;-73
2022/04/11 04:43:21;;;;;;;6.68;5.70;;;;;;;7.40;nan;94971.72;5004437;28;20205;-72
2022/04/11 04:45:48;;;;;;;6.35;4.65;;;;;;;7.74;nan;94993.66;5005239;28;20769;-72
2022/04/11 04:48:16;;;;;;;4.10;3.75;;;;;;;7.33;nan;94990.41;5005179;28;20210;-74
2022/04/11 04:50:43;;;;;;;4.20;3.80;;;;;;;7.22;nan;94989.78;5004751;28;20203;-71
2022/04/11 04:53:10;;;;;;;6.40;3.88;;;;;;;7.33;nan;94999.69;5005568;28;20637;-71
2022/04/11 04:55:37;;;;;;;14.70;8.95;;;;;;;7.55;nan;95000.03;5004543;28;20199;-71
2022/04/11 04:58:04;;;;;;;8.98;6.45;;;;;;;7.53;nan;95002.59;5005547;28;20207;-71
2022/04/11 05:00:31;;;;;;;5.22;4.63;;;;;;;7.43;nan;95001.13;5005339;28;20206;-72
2022/04/11 05:02:58;;;;;;;5.78;3.80;;;;;;;7.33;nan;95000.50;5004574;28;20203;-73
2022/04/11 05:05:26;;;;;;;5.65;4.10;;;;;;;7.60;nan;95010.88;5005834;28;20220;-71
2022/04/11 05:07:52;;;;;;;4.72;3.45;;;;;;;7.57;nan;95001.66;5005056;28;20204;-70
2022/04/11 05:10:19;;;;;;;5.57;4.40;;;;;;;7.58;nan;95017.66;5005598;28;20204;-72
2022/04/11 05:12:48;;;;;;;8.27;4.70;;;;;;;7.49;nan;95021.22;5004568;28;21737;-71
2022/04/11 05:15:15;;;;;;;4.97;4.47;;;;;;;7.56;nan;95025.28;5005706;28;20219;-71
2022/04/11 05:17:42;;;;;;;4.32;4.03;;;;;;;7.50;nan;95028.78;5005124;28;20935;-70
2022/04/11 05:20:10;;;;;;;6.30;4.05;;;;;;;7.77;nan;95032.38;5005346;28;20207;-71
2022/04/11 05:22:39;;;;;;;4.65;4.25;;;;;;;7.63;nan;95033.56;5004404;28;20206;-71
2022/04/11 05:25:06;;;;;;;5.07;3.83;;;;;;;7.55;nan;95035.44;5005167;28;20204;-70
2022/04/11 05:27:33;;;;;;;4.78;3.90;;;;;;;7.61;nan;95030.25;5005026;28;20231;-73
2022/04/11 05:30:00;;;;;;;7.47;4.25;;;;;;;7.48;nan;95019.56;5005114;28;21294;-71
2022/04/11 05:32:26;;;;;;;6.32;3.90;;;;;;;7.77;nan;95034.06;5003269;28;20295;-70
2022/04/11 05:34:53;;;;;;;4.85;4.55;;;;;;;7.60;nan;95037.00;5004535;28;22189;-71
2022/04/11 05:37:20;;;;;;;4.93;4.47;;;;;;;7.53;nan;95044.75;5004294;28;20641;-71
2022/04/11 05:39:48;;;;;;;6.00;4.00;;;;;;;7.46;nan;95047.41;5004312;28;20281;-73
2022/04/11 05:42:15;;;;;;;10.52;3.72;;;;;;;7.41;nan;95041.63;5005758;28;20208;-74
2022/04/11 05:44:41;;;;;;;3.90;3.60;;;;;;;7.64;nan;95045.34;5004199;28;20208;-73
2022/04/11 05:47:08;;;;;;;4.75;3.97;;;;;;;7.66;nan;95047.00;5003441;28;20285;-72
2022/04/11 05:49:37;;;;;;;5.28;4.00;;;;;;;7.71;nan;95046.84;5004878;28;20262;-71
2022/04/11 05:52:04;;;;;;;4.40;4.00;;;;;;;7.83;nan;95051.66;5003583;28;20307;-72
2022/04/11 05:54:30;;;;;;;4.32;3.95;;;;;;;7.64;nan;95053.78;5004084;28;20273;-72
2022/04/11 05:56:59;;;;;;;5.50;4.15;;;;;;;7.58;nan;95063.19;5002468;28;21167;-73
2022/04/11 05:59:25;;;;;;;4.82;4.43;;;;;;;7.20;nan;95063.97;5004931;28;20658;-71
2022/04/11 06:01:52;;;;;;;4.68;4.28;;;;;;;7.20;nan;95063.97;5004086;28;20659;-72
2022/04/11 06:04:19;;;;;;;8.32;4.30;;;;;;;7.38;nan;95068.69;5002989;28;20207;-72
2022/04/11 06:06:46;;;;;;;8.23;4.22;;;;;;;7.61;nan;95071.53;5002611;28;20235;-73
2022/04/11 06:09:12;;;;;;;4.32;3.92;;;;;;;7.53;nan;95080.97;5003579;28;20208;-71
2022/04/11 06:11:39;;;;;;;4.93;4.50;;;;;;;7.46;nan;95080.28;5003622;28;20256;-74
2022/04/11 06:14:07;;;;;;;3.97;3.67;;;;;;;7.36;nan;95075.47;5000893;28;20232;-70
2022/04/11 06:16:34;;;;;;;7.07;4.35;;;;;;;7.38;nan;95079.63;5002594;28;20204;-72
2022/04/11 06:19:01;;;;;;;4.32;3.92;;;;;;;7.41;nan;95071.97;5000643;28;22032;-71
2022/04/11 06:21:28;;;;;;;7.53;4.18;;;;;;;7.56;nan;95077.56;5001928;28;20278;-71
2022/04/11 06:23:55;;;;;;;4.47;4.18;;;;;;;7.47;nan;95083.63;5002003;28;20204;-72
2022/04/11 06:26:22;;;;;;;4.68;4.13;;;;;;;7.30;nan;95085.69;5001387;28;20281;-73
2022/04/11 06:28:49;;;;;;;10.68;4.63;;;;;;;7.61;nan;95086.72;5002940;28;20197;-71
2022/04/11 06:31:17;;;;;;;7.32;6.10;;;;;;;8.36;nan;95087.53;5003916;28;20196;-71
2022/04/11 06:33:44;;;;;;;7.90;5.20;;;;;;;8.76;nan;95080.59;5002467;28;20219;-73
2022/04/11 06:36:11;;;;;;;6.22;4.70;;;;;;;8.65;nan;95074.97;5001481;28;20221;-72
2022/04/11 06:38:38;;;;;;;6.15;5.35;;;;;;;8.76;nan;95089.88;5001706;28;20200;-72
2022/04/11 06:41:05;;;;;;;7.55;4.82;;;;;;;8.73;nan;95083.19;5002841;28;20626;-74
2022/04/11 06:43:31;;;;;;;5.85;4.85;;;;;;;8.76;nan;95083.13;5002947;28;21177;-71
2022/04/11 06:45:58;;;;;;;5.28;4.32;;;;;;;9.21;nan;95090.34;4995943;28;20200;-71
2022/04/11 06:48:27;;;;;;;5.15;3.92;;;;;;;10.49;nan;95082.22;4999847;28;20262;-73
2022/04/11 06:50:54;;;;;;;7.43;3.88;;;;;;;13.51;nan;95071.34;5001955;28;20644;-73
2022/04/11 06:53:21;;;;;;;6.38;4.38;;;;;;;16.64;nan;95062.19;5000874;28;20291;-73
2022/04/11 06:55:48;;;;;;;3.90;3.60;;;;;;;18.74;nan;95063.06;5002493;28;20398;-72
2022/04/11 06:58:16;;;;;;;5.32;3.85;;;;;;;18.67;nan;95065.22;5001151;28;20196;-71
2022/04/11 07:00:43;;;;;;;5.43;4.00;;;;;;;19.49;nan;95054.53;5002506;28;20211;-71
2022/04/11 07:03:13;;;;;;;4.40;3.85;;;;;;;19.18;nan;95068.69;5002192;28;20683;-71
2022/04/11 07:05:42;;;;;;;4.13;3.70;;;;;;;18.79;nan;95072.16;5000886;28;20834;-71
2022/04/11 07:08:09;;;;;;;3.78;3.45;;;;;;;19.59;nan;95080.53;5002565;28;20805;-72
2022/04/11 07:10:40;;;;;;;4.55;3.20;;;;;;;20.52;nan;95079.16;5002650;28;20675;-71
2022/04/11 07:13:07;;;;;;;3.30;3.10;;;;;;;20.71;nan;95066.53;5003281;28;20618;-71
2022/04/11 07:15:34;;;;;;;9.65;4.03;;;;;;;20.11;nan;95087.22;5002765;28;20326;-71
2022/04/11 07:18:01;;;;;;;4.35;3.85;;;;;;;18.99;nan;95084.53;5002828;28;20277;-71
2022/04/11 07:20:27;;;;;;;6.88;4.13;;;;;;;17.87;nan;95097.69;5002963;28;20201;-71
2022/04/11 07:22:56;;;;;;;4.47;3.83;;;;;;;16.16;nan;95101.66;5002770;28;20204;-71
2022/04/11 07:25:24;;;;;;;4.60;4.10;;;;;;;15.03;nan;95104.19;5003198;28;20679;-72
2022/04/11 07:27:51;;;;;;;4.65;4.10;;;;;;;15.86;nan;95103.31;5003784;28;20289;-70
2022/04/11 07:30:18;;;;;;;7.32;5.40;;;;;;;16.31;nan;95108.53;5003701;28;20208;-71
2022/04/11 07:32:45;;;;;;;4.10;3.80;;;;;;;16.94;nan;95098.13;5004187;28;20196;-72
2022/04/11 07:35:12;;;;;;;6.82;4.03;;;;;;;16.60;nan;95099.16;5003751;28;20231;-73
2022/04/11 07:37:39;;;;;;;4.20;3.78;;;;;;;16.85;nan;95108.91;5018709;28;20208;-71
2022/04/11 07:40:08;;;;;;;3.75;3.40;;;;;;;17.76;nan;95112.16;5007412;28;20283;-70
2022/04/11 07:42:35;;;;;;;8.15;5.78;;;;;;;17.85;nan;95121.84;5008090;28;20192;-71
2022/04/11 07:45:02;;;;;;;5.57;5.07;;;;;;;17.92;nan;95118.00;5008959;28;20192;-71
2022/04/11 07:47:28;;;;;;;5.78;4.88;;;;;;;18.01;nan;95120.84;5008393;28;20238;-72
2022/04/11 07:49:56;;;;;;;5.90;4.18;;;;;;;17.99;nan;95119.28;5009161;28;20200;-71
2022/04/11 07:52:25;;;;;;;7.50;3.38;;;;;;;16.93;nan;95124.69;5009469;28;20690;-71
2022/04/11 07:54:52;;;;;;;4.20;3.85;;;;;;;16.47;nan;95130.75;5008617;28;20220;-70
2022/04/11 07:57:22;;;;;;;6.45;3.65;;;;;;;16.67;nan;95127.91;5008048;28;20246;-71
2022/04/11 07:59:48;;;;;;;3.47;3.10;;;;;;;15.42;nan;95142.28;5008811;28;20204;-70
2022/04/11 08:02:16;;;;;;;4.88;3.22;;;;;;;14.28;nan;95145.34;5009320;28;20600;-71
2022/04/11 08:04:42;;;;;;;12.00;4.40;;;;;;;13.85;nan;95131.16;5008339;28;20224;-71
2022/04/11 08:07:09;;;;;;;4.80;4.35;;;;;;;13.33;nan;95132.59;5008613;28;20235;-72
2022/04/11 08:09:36;;;;;;;5.32;3.80;;;;;;;12.56;nan;95145.13;5008758;28;20967;-71
2022/04/11 08:12:03;;;;;;;4.45;4.05;;;;;;;12.13;nan;95156.13;5010298;28;20197;-72
2022/04/11 08:14:32;;;;;;;5.72;4.57;;;;;;;12.16;nan;95146.66;5018744;28;20219;-70
2022/04/11 08:17:02;;;;;;;4.15;3.78;;;;;;;11.83;nan;95147.97;5030081;28;20196;-73
2022/04/11 08:19:29;;;;;;;4.78;3.72;;;;;;;12.16;nan;95161.13;5025987;28;20203;-70
2022/04/11 08:21:56;;;;;;;4.35;3.35;;;;;;;12.97;nan;95156.19;5010470;28;20688;-70
2022/04/11 08:24:23;;;;;;;5.57;3.50;;;;;;;13.11;nan;95153.91;5010714;28;20200;-73
2022/04/11 08:26:50;;;;;;;4.22;3.33;;;;;;;12.90;nan;95157.31;5010721;28;20260;-69
2022/04/11 08:29:17;;;;;;;7.43;4.00;;;;;;;12.90;nan;95157.31;5010697;28;20200;-71
2022/04/11 08:31:45;;;;;;;4.47;4.10;;;;;;;13.05;nan;95153.31;5010914;28;20214;-71
2022/04/11 08:34:12;;;;;;;7.93;4.82;;;;;;;13.49;nan;95154.84;5023295;28;20265;-71
2022/04/11 08:36:39;;;;;;;4.43;4.03;;;;;;;13.56;nan;95135.81;5029879;28;20214;-70
2022/04/11 08:39:07;;;;;;;4.35;3.75;;;;;;;13.57;nan;95147.69;5017625;28;20201;-72
2022/04/11 08:41:36;;;;;;;9.50;4.03;;;;;;;13.90;nan;95147.06;5010386;28;20196;-70
2022/04/11 08:44:06;;;;;;;4.38;3.67;;;;;;;14.00;nan;95157.72;5021818;28;20254;-70
2022/04/11 08:46:35;;;;;;;4.05;3.70;;;;;;;13.74;nan;95153.78;5030125;28;20307;-70
2022/04/11 08:49:06;;;;;;;5.05;3.58;;;;;;;13.96;nan;95162.13;5017762;28;20683;-71
2022/04/11 08:51:34;;;;;;;4.22;3.30;;;;;;;13.53;nan;95156.38;5010441;28;20427;-71
2022/04/11 08:54:02;;;;;;;3.83;3.53;;;;;;;13.24;nan;95165.28;5021237;28;20840;-71
2022/04/11 08:56:29;;;;;;;3.88;3.53;;;;;;;12.73;nan;95152.91;5029967;28;20196;-73
2022/04/11 08:58:56;;;;;;;3.30;2.97;;;;;;;12.90;nan;95155.59;5018738;28;20201;-71
2022/04/11 09:01:25;;;;;;;3.92;3.22;;;;;;;13.09;nan;95159.97;5010111;28;20201;-71
2022/04/11 09:03:52;;;;;;;4.10;3.47;;;;;;;13.11;nan;95163.28;5010375;28;20200;-71
2022/04/11 09:06:24;;;;;;;3.90;3.60;;;;;;;13.05;nan;95146.50;5010069;28;20196;-70
2022/04/11 09:08:52;;;;;;;4.00;3.60;;;;;;;12.70;nan;95176.00;5010464;28;20228;-70
2022/04/11 09:11:29;;;;;;;5.10;2.95;;;;;;;12.47;nan;95171.81;5009880;28;20196;-72
2022/04/11 09:13:56;;;;;;;3.63;3.33;;;;;;;12.40;nan;95172.09;5010650;28;20234;-72
2022/04/11 09:16:23;;;;;;;3.53;3.22;;;;;;;12.42;nan;95167.75;5009946;28;20212;-70
2022/04/11 09:18:52;;;;;;;6.43;3.38;;;;;;;12.44;nan;95161.72;5019827;28;20200;-71
2022/04/11 09:21:22;;;;;;;6.55;3.60;;;;;;;12.12;nan;95183.38;5019901;28;20295;-71
2022/04/11 09:23:50;;;;;;;4.20;3.80;;;;;;;11.87;nan;95169.88;5009913;28;20192;-72
2022/04/11 09:26:20;;;;;;;3.85;3.45;;;;;;;12.01;nan;95182.91;5010529;28;20683;-70
2022/04/11 09:29:00;;;;;;;3.80;3.50;;;;;;;12.25;nan;95176.91;5011918;28;20290;-71
2022/04/11 09:31:27;;;;;;;4.32;3.67;;;;;;;12.12;nan;95165.53;5014031;28;20644;-73
2022/04/11 09:33:55;;;;;;;3.53;3.28;;;;;;;12.22;nan;95177.00;5013551;28;20263;-71
2022/04/11 09:36:23;;;;;;;6.70;3.75;;;;;;;12.14;nan;95184.09;5013931;28;20231;-72
2022/04/11 09:39:01;;;;;;;4.15;3.85;;;;;;;12.47;nan;95165.88;5013295;28;20192;-71
2022/04/11 09:41:28;;;;;;;3.80;3.50;;;;;;;12.91;nan;95162.38;5013586;28;20204;-71
2022/04/11 09:43:55;;;;;;;3.70;3.47;;;;;;;13.30;nan;95159.09;5013118;28;20291;-72
2022/04/11 09:46:22;;;;;;;4.25;3.95;;;;;;;13.50;nan;95148.84;5013755;28;20205;-74
2022/04/11 09:48:53;;;;;;;3.08;2.88;;;;;;;13.38;nan;95167.22;5013646;28;20318;-70
2022/04/11 09:51:20;;;;;;;4.78;4.10;;;;;;;13.47;nan;95166.84;5025726;28;20203;-70
2022/04/11 09:53:49;;;;;;;10.00;6.00;;;;;;;13.65;nan;95161.81;5032533;28;20245;-71
2022/04/11 09:56:17;;;;;;;8.07;3.72;;;;;;;13.76;nan;95162.19;5020515;28;20201;-71
2022/04/11 09:58:44;;;;;;;4.00;3.70;;;;;;;13.70;nan;95167.56;5013249;28;20200;-70
2022/04/11 10:01:11;;;;;;;6.18;4.60;;;;;;;13.81;nan;95161.09;5013344;28;20201;-71
2022/04/11 10:03:39;;;;;;;5.22;4.55;;;;;;;13.99;nan;95164.56;5012793;28;20200;-70
2022/04/11 10:06:07;;;;;;;3.55;3.15;;;;;;;14.12;nan;95163.06;5023237;28;20199;-70
2022/04/11 10:08:34;;;;;;;6.40;4.40;;;;;;;13.89;nan;95160.75;5032666;28;20231;-71
2022/04/11 10:11:04;;;;;;;3.72;3.47;;;;;;;13.86;nan;95153.22;5031244;28;20234;-72
2022/04/11 10:13:32;;;;;;;3.03;2.83;;;;;;;13.51;nan;95153.06;5032299;28;20660;-70
2022/04/11 10:16:00;;;;;;;3.85;3.50;;;;;;;13.09;nan;95171.00;5021955;28;20220;-70
2022/04/11 10:18:28;;;;;;;3.28;3.08;;;;;;;13.09;nan;95165.06;5012603;28;20722;-70
2022/04/11 10:20:58;;;;;;;3.25;2.95;;;;;;;12.60;nan;95164.50;5013316;28;20208;-70
2022/04/11 10:23:30;;;;;;;3.92;3.60;;;;;;;12.34;nan;95167.25;5012851;28;20193;-70
2022/04/11 10:25:59;;;;;;;3.53;3.17;;;;;;;12.78;nan;95166.31;5021809;28;20683;-70
2022/04/11 10:28:29;;;;;;;3.67;3.38;;;;;;;13.17;nan;95163.88;5032313;28;20607;-72
2022/04/11 10:31:09;;;;;;;3.17;2.97;;;;;;;13.44;nan;95161.88;5031060;28;20269;-70
2022/04/11 10:33:44;;;;;;;3.50;3.20;;;;;;;13.22;nan;95158.56;5032284;28;20195;-72
2022/04/11 10:36:31;;;;;;;4.57;3.40;;;;;;;13.00;nan;95160.34;5020111;28;20204;-72
2022/04/11 10:39:26;;;;;;;3.33;3.03;;;;;;;13.48;nan;95160.84;5011629;28;20672;-70
2022/04/11 10:42:16;;;;;;;3.08;2.85;;;;;;;12.98;nan;95160.41;5012056;28;20680;-71
2022/04/11 10:44:46;;;;;;;3.33;2.97;;;;;;;12.34;nan;95165.53;5024177;28;20196;-70
2022/04/11 10:47:31;;;;;;;3.65;2.92;;;;;;;12.86;nan;95163.47;5031775;28;20671;-69
2022/04/11 10:50:35;;;;;;;3.28;2.97;;;;;;;13.00;nan;95170.53;5016399;28;20291;-69
2022/04/11 10:53:27;;;;;;;2.85;2.42;;;;;;;13.14;nan;95160.56;4994463;28;20243;-71
2022/04/11 10:56:05;;;;;;;3.63;2.47;;;;;;;12.98;nan;95167.22;5011706;28;20232;-70
2022/04/11 10:58:47;;;;;;;3.00;2.80;;;;;;;12.79;nan;95147.59;5026233;28;20206;-69
2022/04/11 11:01:49;;;;;;;3.15;2.83;;;;;;;12.75;nan;95151.13;5031483;28;20667;-70
2022/04/11 11:04:17;;;;;;;3.78;2.72;;;;;;;12.60;nan;95167.06;5011456;28;20196;-70
2022/04/11 11:06:44;;;;;;;4.70;3.47;;;;;;;12.67;nan;95148.06;5011634;28;20208;-70
2022/04/11 11:09:18;;;;;;;7.22;4.60;;;;;;;13.17;nan;95163.88;5011285;28;20239;-73
2022/04/11 11:11:47;;;;;;;3.53;2.85;;;;;;;12.96;nan;95159.63;5011634;28;20321;-70
2022/04/11 11:14:41;;;;;;;3.78;2.50;;;;;;;12.71;nan;95158.97;5011099;28;20251;-70
2022/04/11 11:17:10;;;;;;;3.17;2.80;;;;;;;12.44;nan;95141.34;5010802;28;20766;-70
2022/04/11 11:20:05;;;;;;;3.47;3.17;;;;;;;12.56;nan;95168.06;5011280;28;20196;-73
2022/04/11 11:22:56;;;;;;;2.78;2.58;;;;;;;13.16;nan;95162.22;5011779;28;20621;-70
2022/04/11 11:25:22;;;;;;;2.60;2.40;;;;;;;13.08;nan;95155.75;5011090;28;20576;-70
2022/04/11 11:27:50;;;;;;;2.92;2.72;;;;;;;13.08;nan;95174.44;5011726;28;20793;-71
2022/04/11 11:30:18;;;;;;;2.47;2.28;;;;;;;12.71;nan;95164.06;5011442;28;20224;-69
2022/04/11 11:32:47;;;;;;;4.13;3.42;;;;;;;12.69;nan;95165.84;5011553;28;20698;-70
2022/04/11 11:35:14;;;;;;;3.50;3.30;;;;;;;12.48;nan;95136.94;5011035;28;20192;-70
2022/04/11 11:37:41;;;;;;;3.50;3.20;;;;;;;12.64;nan;95170.28;5025519;28;20200;-71
2022/04/11 11:40:10;;;;;;;3.00;2.80;;;;;;;12.74;nan;95166.50;5030974;28;20199;-69
2022/04/11 11:42:38;;;;;;;4.28;2.80;;;;;;;12.52;nan;95158.88;5015482;28;20501;-71
2022/04/11 11:45:07;;;;;;;4.43;3.60;;;;;;;12.71;nan;95159.81;5010688;28;20274;-69
2022/04/11 11:47:34;;;;;;;3.50;3.25;;;;;;;13.12;nan;95154.72;5011206;28;20208;-70
2022/04/11 11:50:06;;;;;;;2.90;2.70;;;;;;;13.27;nan;95156.66;5010822;28;20266;-69
2022/04/11 11:52:34;;;;;;;2.25;2.15;;;;;;;13.16;nan;95163.94;5010410;28;20204;-71
2022/04/11 11:55:02;;;;;;;3.00;2.78;;;;;;;12.98;nan;95168.06;5010874;28;20636;-69
2022/04/11 11:57:30;;;;;;;2.25;2.10;;;;;;;12.67;nan;95173.56;5023640;28;20633;-69
2022/04/11 12:00:01;;;;;;;6.65;2.60;;;;;;;12.48;nan;95186.22;5030529;28;20196;-70
2022/04/11 12:05:21;;;;;;;4.47;4.07;;;;;;;12.17;nan;95184.00;5011095;28;20208;-71